sensor_id;sensor_type;location;lat;lon;timestamp;temperature;humidity
46037;DHT22;31769;49.304;8.428;2024-03-22T00:01:56;11.70;99.90
46037;DHT22;31769;49.304;8.428;2024-03-22T00:04:57;11.60;99.90
46037;DHT22;31769;49.304;8.428;2024-03-22T00:07:57;11.70;99.90
46037;DHT22;31769;49.304;8.428;2024-03-22T00:10:58;11.70;99.90
46037;DHT22;31769;49.304;8.428;2024-03-22T00:13:59;11.60;99.90
46037;DHT22;31769;49.304;8.428;2024-03-22T00:16:59;11.60;99.90
46037;DHT22;31769;49.304;8.428;2024-03-22T00:20:00;11.60;99.90
46037;DHT22;31769;49.304;8.428;2024-03-22T00:23:01;11.50;99.90
46037;DHT22;31769;49.304;8.428;2024-03-22T00:26:01;11.50;99.90
46037;DHT22;31769;49.304;8.428;2024-03-22T00:29:02;11.50;99.90
46037;DHT22;31769;49.304;8.428;2024-03-22T00:32:04;11.50;99.90
46037;DHT22;31769;49.304;8.428;2024-03-22T00:35:05;11.50;99.90
46037;DHT22;31769;49.304;8.428;2024-03-22T00:38:05;11.50;99.90
46037;DHT22;31769;49.304;8.428;2024-03-22T00:41:06;11.40;99.90
46037;DHT22;31769;49.304;8.428;2024-03-22T00:44:07;11.30;99.90
46037;DHT22;31769;49.304;8.428;2024-03-22T00:47:08;11.20;99.90
46037;DHT22;31769;49.304;8.428;2024-03-22T00:50:08;11.10;99.90
46037;DHT22;31769;49.304;8.428;2024-03-22T00:53:09;11.00;99.90
46037;DHT22;31769;49.304;8.428;2024-03-22T00:56:10;10.90;99.90
46037;DHT22;31769;49.304;8.428;2024-03-22T00:59:11;10.70;99.90
46037;DHT22;31769;49.304;8.428;2024-03-22T01:02:11;10.50;99.90
46037;DHT22;31769;49.304;8.428;2024-03-22T01:05:12;10.50;99.90
46037;DHT22;31769;49.304;8.428;2024-03-22T01:08:13;10.50;99.90
46037;DHT22;31769;49.304;8.428;2024-03-22T01:11:13;10.60;99.90
46037;DHT22;31769;49.304;8.428;2024-03-22T01:14:14;10.60;99.90
46037;DHT22;31769;49.304;8.428;2024-03-22T01:17:15;10.60;99.90
46037;DHT22;31769;49.304;8.428;2024-03-22T01:20:16;10.50;99.90
46037;DHT22;31769;49.304;8.428;2024-03-22T01:23:17;10.50;99.90
46037;DHT22;31769;49.304;8.428;2024-03-22T01:26:17;10.40;99.90
46037;DHT22;31769;49.304;8.428;2024-03-22T01:29:18;10.40;99.90
46037;DHT22;31769;49.304;8.428;2024-03-22T01:32:19;10.40;99.90
46037;DHT22;31769;49.304;8.428;2024-03-22T01:35:19;10.50;99.90
46037;DHT22;31769;49.304;8.428;2024-03-22T01:38:20;10.50;99.90
46037;DHT22;31769;49.304;8.428;2024-03-22T01:41:20;10.50;99.90
46037;DHT22;31769;49.304;8.428;2024-03-22T01:44:27;10.40;99.90
46037;DHT22;31769;49.304;8.428;2024-03-22T01:47:28;10.40;99.90
46037;DHT22;31769;49.304;8.428;2024-03-22T01:50:29;10.30;99.90
46037;DHT22;31769;49.304;8.428;2024-03-22T01:53:29;10.30;99.90
46037;DHT22;31769;49.304;8.428;2024-03-22T01:56:30;10.40;99.90
46037;DHT22;31769;49.304;8.428;2024-03-22T01:59:32;10.50;99.90
46037;DHT22;31769;49.304;8.428;2024-03-22T02:02:34;10.50;99.90
46037;DHT22;31769;49.304;8.428;2024-03-22T02:05:35;10.60;99.90
46037;DHT22;31769;49.304;8.428;2024-03-22T02:08:36;10.60;99.90
46037;DHT22;31769;49.304;8.428;2024-03-22T02:11:36;10.70;99.90
46037;DHT22;31769;49.304;8.428;2024-03-22T02:14:40;10.60;99.90
46037;DHT22;31769;49.304;8.428;2024-03-22T02:17:41;10.60;99.90
46037;DHT22;31769;49.304;8.428;2024-03-22T02:20:42;10.60;99.90
46037;DHT22;31769;49.304;8.428;2024-03-22T02:23:42;10.60;99.90
46037;DHT22;31769;49.304;8.428;2024-03-22T02:26:43;10.50;99.90
46037;DHT22;31769;49.304;8.428;2024-03-22T02:29:44;10.50;99.90
46037;DHT22;31769;49.304;8.428;2024-03-22T02:32:44;10.50;99.90
46037;DHT22;31769;49.304;8.428;2024-03-22T02:35:49;10.50;99.90
46037;DHT22;31769;49.304;8.428;2024-03-22T02:38:50;10.60;99.90
46037;DHT22;31769;49.304;8.428;2024-03-22T02:41:50;10.60;99.90
46037;DHT22;31769;49.304;8.428;2024-03-22T02:44:52;10.50;99.90
46037;DHT22;31769;49.304;8.428;2024-03-22T02:47:53;10.50;99.90
46037;DHT22;31769;49.304;8.428;2024-03-22T02:50:55;10.50;99.90
46037;DHT22;31769;49.304;8.428;2024-03-22T02:53:57;10.50;99.90
46037;DHT22;31769;49.304;8.428;2024-03-22T02:56:57;10.40;99.90
46037;DHT22;31769;49.304;8.428;2024-03-22T03:00:00;10.30;99.90
46037;DHT22;31769;49.304;8.428;2024-03-22T03:03:00;10.30;99.90
46037;DHT22;31769;49.304;8.428;2024-03-22T03:06:01;10.20;99.90
46037;DHT22;31769;49.304;8.428;2024-03-22T03:09:02;10.20;99.90
46037;DHT22;31769;49.304;8.428;2024-03-22T03:12:02;10.20;99.90
46037;DHT22;31769;49.304;8.428;2024-03-22T03:15:03;10.10;99.90
46037;DHT22;31769;49.304;8.428;2024-03-22T03:18:04;10.00;99.90
46037;DHT22;31769;49.304;8.428;2024-03-22T03:21:05;10.00;99.90
46037;DHT22;31769;49.304;8.428;2024-03-22T03:24:05;10.00;99.90
46037;DHT22;31769;49.304;8.428;2024-03-22T03:27:07;10.10;99.90
46037;DHT22;31769;49.304;8.428;2024-03-22T03:30:08;10.00;99.90
46037;DHT22;31769;49.304;8.428;2024-03-22T03:33:08;10.00;99.90
46037;DHT22;31769;49.304;8.428;2024-03-22T03:36:09;9.90;99.90
46037;DHT22;31769;49.304;8.428;2024-03-22T03:39:10;10.00;99.90
46037;DHT22;31769;49.304;8.428;2024-03-22T03:42:10;10.00;99.90
46037;DHT22;31769;49.304;8.428;2024-03-22T03:45:11;9.90;99.90
46037;DHT22;31769;49.304;8.428;2024-03-22T03:48:12;9.90;99.90
46037;DHT22;31769;49.304;8.428;2024-03-22T03:51:13;9.90;99.90
46037;DHT22;31769;49.304;8.428;2024-03-22T03:54:14;9.90;99.90
46037;DHT22;31769;49.304;8.428;2024-03-22T03:57:15;9.90;99.90
46037;DHT22;31769;49.304;8.428;2024-03-22T04:00:16;9.90;99.90
46037;DHT22;31769;49.304;8.428;2024-03-22T04:03:16;9.80;99.90
46037;DHT22;31769;49.304;8.428;2024-03-22T04:06:17;9.80;99.90
46037;DHT22;31769;49.304;8.428;2024-03-22T04:09:18;9.80;99.90
46037;DHT22;31769;49.304;8.428;2024-03-22T04:12:18;9.80;99.90
46037;DHT22;31769;49.304;8.428;2024-03-22T04:15:19;9.80;99.90
46037;DHT22;31769;49.304;8.428;2024-03-22T04:18:20;9.80;99.90
46037;DHT22;31769;49.304;8.428;2024-03-22T04:21:20;9.70;99.90
46037;DHT22;31769;49.304;8.428;2024-03-22T04:24:21;9.70;99.90
46037;DHT22;31769;49.304;8.428;2024-03-22T04:27:22;9.70;99.90
46037;DHT22;31769;49.304;8.428;2024-03-22T04:30:22;9.60;99.90
46037;DHT22;31769;49.304;8.428;2024-03-22T04:33:23;9.70;99.90
46037;DHT22;31769;49.304;8.428;2024-03-22T04:36:24;9.60;99.90
46037;DHT22;31769;49.304;8.428;2024-03-22T04:39:24;9.60;99.90
46037;DHT22;31769;49.304;8.428;2024-03-22T04:42:25;9.60;99.90
46037;DHT22;31769;49.304;8.428;2024-03-22T04:45:25;9.60;99.90
46037;DHT22;31769;49.304;8.428;2024-03-22T04:48:26;9.50;99.90
46037;DHT22;31769;49.304;8.428;2024-03-22T04:51:27;9.40;99.90
46037;DHT22;31769;49.304;8.428;2024-03-22T04:54:27;9.40;99.90
46037;DHT22;31769;49.304;8.428;2024-03-22T04:57:28;9.30;99.90
46037;DHT22;31769;49.304;8.428;2024-03-22T05:00:29;9.20;99.90
46037;DHT22;31769;49.304;8.428;2024-03-22T05:03:29;9.20;99.90
46037;DHT22;31769;49.304;8.428;2024-03-22T05:06:30;9.30;99.90
46037;DHT22;31769;49.304;8.428;2024-03-22T05:09:31;9.40;99.90
46037;DHT22;31769;49.304;8.428;2024-03-22T05:12:32;9.40;99.90
46037;DHT22;31769;49.304;8.428;2024-03-22T05:15:33;9.50;99.90
46037;DHT22;31769;49.304;8.428;2024-03-22T05:18:33;9.40;99.90
46037;DHT22;31769;49.304;8.428;2024-03-22T05:21:34;9.40;99.90
46037;DHT22;31769;49.304;8.428;2024-03-22T05:24:35;9.50;99.90
46037;DHT22;31769;49.304;8.428;2024-03-22T05:27:36;9.50;99.90
46037;DHT22;31769;49.304;8.428;2024-03-22T05:30:37;9.60;99.90
46037;DHT22;31769;49.304;8.428;2024-03-22T05:33:37;9.60;99.90
46037;DHT22;31769;49.304;8.428;2024-03-22T05:36:38;9.50;99.90
46037;DHT22;31769;49.304;8.428;2024-03-22T05:39:38;9.50;99.90
46037;DHT22;31769;49.304;8.428;2024-03-22T05:42:40;9.50;99.90
46037;DHT22;31769;49.304;8.428;2024-03-22T05:45:41;9.50;99.90
46037;DHT22;31769;49.304;8.428;2024-03-22T05:48:42;9.40;99.90
46037;DHT22;31769;49.304;8.428;2024-03-22T05:51:42;9.40;99.90
46037;DHT22;31769;49.304;8.428;2024-03-22T05:54:43;9.30;99.90
46037;DHT22;31769;49.304;8.428;2024-03-22T05:57:44;9.30;99.90
46037;DHT22;31769;49.304;8.428;2024-03-22T06:00:45;9.30;99.90
46037;DHT22;31769;49.304;8.428;2024-03-22T06:03:46;9.40;99.90
46037;DHT22;31769;49.304;8.428;2024-03-22T06:06:46;9.30;99.90
46037;DHT22;31769;49.304;8.428;2024-03-22T06:09:47;9.40;99.90
46037;DHT22;31769;49.304;8.428;2024-03-22T06:12:48;9.40;99.90
46037;DHT22;31769;49.304;8.428;2024-03-22T06:15:49;9.40;99.90
46037;DHT22;31769;49.304;8.428;2024-03-22T06:18:50;9.40;99.90
46037;DHT22;31769;49.304;8.428;2024-03-22T06:21:50;9.50;99.90
46037;DHT22;31769;49.304;8.428;2024-03-22T06:24:53;9.50;99.90
46037;DHT22;31769;49.304;8.428;2024-03-22T06:27:53;9.50;99.90
46037;DHT22;31769;49.304;8.428;2024-03-22T06:30:54;9.50;99.90
46037;DHT22;31769;49.304;8.428;2024-03-22T06:33:55;9.60;99.90
46037;DHT22;31769;49.304;8.428;2024-03-22T06:37:02;9.70;99.90
46037;DHT22;31769;49.304;8.428;2024-03-22T06:40:03;9.90;99.90
46037;DHT22;31769;49.304;8.428;2024-03-22T06:43:05;10.00;99.90
46037;DHT22;31769;49.304;8.428;2024-03-22T06:46:06;10.10;99.90
46037;DHT22;31769;49.304;8.428;2024-03-22T06:49:07;10.20;99.90
46037;DHT22;31769;49.304;8.428;2024-03-22T06:52:07;10.30;99.90
46037;DHT22;31769;49.304;8.428;2024-03-22T06:55:08;10.50;99.90
46037;DHT22;31769;49.304;8.428;2024-03-22T06:58:09;10.60;99.90
46037;DHT22;31769;49.304;8.428;2024-03-22T07:01:10;10.80;99.90
46037;DHT22;31769;49.304;8.428;2024-03-22T07:04:10;10.90;99.90
46037;DHT22;31769;49.304;8.428;2024-03-22T07:07:11;11.10;99.90
46037;DHT22;31769;49.304;8.428;2024-03-22T07:10:12;11.20;99.90
46037;DHT22;31769;49.304;8.428;2024-03-22T07:13:12;11.40;99.90
46037;DHT22;31769;49.304;8.428;2024-03-22T07:16:13;11.40;99.90
46037;DHT22;31769;49.304;8.428;2024-03-22T07:19:14;11.50;99.90
46037;DHT22;31769;49.304;8.428;2024-03-22T07:22:14;11.60;99.90
46037;DHT22;31769;49.304;8.428;2024-03-22T07:25:15;11.90;99.90
46037;DHT22;31769;49.304;8.428;2024-03-22T07:28:16;12.20;99.90
46037;DHT22;31769;49.304;8.428;2024-03-22T07:31:17;12.50;99.90
46037;DHT22;31769;49.304;8.428;2024-03-22T07:34:17;12.60;99.90
46037;DHT22;31769;49.304;8.428;2024-03-22T07:37:18;12.90;99.90
46037;DHT22;31769;49.304;8.428;2024-03-22T07:40:18;13.20;99.90
46037;DHT22;31769;49.304;8.428;2024-03-22T07:43:20;13.40;99.90
46037;DHT22;31769;49.304;8.428;2024-03-22T07:46:21;13.70;99.90
46037;DHT22;31769;49.304;8.428;2024-03-22T07:49:21;13.80;99.90
46037;DHT22;31769;49.304;8.428;2024-03-22T07:52:22;14.00;99.90
46037;DHT22;31769;49.304;8.428;2024-03-22T07:55:25;14.10;99.90
46037;DHT22;31769;49.304;8.428;2024-03-22T07:58:25;14.30;99.90
46037;DHT22;31769;49.304;8.428;2024-03-22T08:01:26;14.40;99.90
46037;DHT22;31769;49.304;8.428;2024-03-22T08:04:27;14.70;99.90
46037;DHT22;31769;49.304;8.428;2024-03-22T08:07:28;15.00;99.90
46037;DHT22;31769;49.304;8.428;2024-03-22T08:10:29;14.90;99.90
46037;DHT22;31769;49.304;8.428;2024-03-22T08:13:30;14.90;99.90
46037;DHT22;31769;49.304;8.428;2024-03-22T08:16:30;14.90;99.90
46037;DHT22;31769;49.304;8.428;2024-03-22T08:19:31;14.90;99.90
46037;DHT22;31769;49.304;8.428;2024-03-22T08:22:32;14.80;99.90
46037;DHT22;31769;49.304;8.428;2024-03-22T08:25:32;14.90;99.90
46037;DHT22;31769;49.304;8.428;2024-03-22T08:28:33;14.90;99.90
46037;DHT22;31769;49.304;8.428;2024-03-22T08:31:34;15.00;99.90
46037;DHT22;31769;49.304;8.428;2024-03-22T08:34:34;15.00;99.90
46037;DHT22;31769;49.304;8.428;2024-03-22T08:37:35;15.20;99.90
46037;DHT22;31769;49.304;8.428;2024-03-22T08:40:37;15.20;99.90
46037;DHT22;31769;49.304;8.428;2024-03-22T08:43:38;15.30;99.90
46037;DHT22;31769;49.304;8.428;2024-03-22T08:46:39;15.30;99.90
46037;DHT22;31769;49.304;8.428;2024-03-22T08:49:39;15.20;99.90
46037;DHT22;31769;49.304;8.428;2024-03-22T08:52:42;15.20;99.90
46037;DHT22;31769;49.304;8.428;2024-03-22T08:55:47;15.10;99.90
46037;DHT22;31769;49.304;8.428;2024-03-22T08:58:47;15.10;99.90
46037;DHT22;31769;49.304;8.428;2024-03-22T09:01:48;15.20;99.90
46037;DHT22;31769;49.304;8.428;2024-03-22T09:04:49;15.20;99.90
46037;DHT22;31769;49.304;8.428;2024-03-22T09:07:50;15.20;99.90
46037;DHT22;31769;49.304;8.428;2024-03-22T09:10:53;15.20;99.90
46037;DHT22;31769;49.304;8.428;2024-03-22T09:13:54;15.40;99.90
46037;DHT22;31769;49.304;8.428;2024-03-22T09:16:54;15.30;99.90
46037;DHT22;31769;49.304;8.428;2024-03-22T09:19:55;15.40;99.90
46037;DHT22;31769;49.304;8.428;2024-03-22T09:22:55;15.50;99.90
46037;DHT22;31769;49.304;8.428;2024-03-22T09:25:57;15.50;99.90
46037;DHT22;31769;49.304;8.428;2024-03-22T09:28:58;15.60;99.90
46037;DHT22;31769;49.304;8.428;2024-03-22T09:31:59;15.50;99.90
46037;DHT22;31769;49.304;8.428;2024-03-22T09:34:59;15.70;99.90
46037;DHT22;31769;49.304;8.428;2024-03-22T09:38:01;15.60;99.90
46037;DHT22;31769;49.304;8.428;2024-03-22T09:41:01;15.70;99.90
46037;DHT22;31769;49.304;8.428;2024-03-22T09:44:03;15.80;99.90
46037;DHT22;31769;49.304;8.428;2024-03-22T09:47:05;15.80;99.90
46037;DHT22;31769;49.304;8.428;2024-03-22T09:50:07;16.00;99.90
46037;DHT22;31769;49.304;8.428;2024-03-22T09:53:10;16.10;99.90
46037;DHT22;31769;49.304;8.428;2024-03-22T09:56:15;16.30;99.90
46037;DHT22;31769;49.304;8.428;2024-03-22T09:59:16;16.30;99.90
46037;DHT22;31769;49.304;8.428;2024-03-22T10:02:17;16.30;99.90
46037;DHT22;31769;49.304;8.428;2024-03-22T10:05:18;16.50;99.90
46037;DHT22;31769;49.304;8.428;2024-03-22T10:08:19;16.50;99.90
46037;DHT22;31769;49.304;8.428;2024-03-22T10:11:19;16.60;99.90
46037;DHT22;31769;49.304;8.428;2024-03-22T10:14:20;16.40;99.90
46037;DHT22;31769;49.304;8.428;2024-03-22T10:17:21;16.30;99.90
46037;DHT22;31769;49.304;8.428;2024-03-22T10:20:21;16.40;99.90
46037;DHT22;31769;49.304;8.428;2024-03-22T10:23:22;16.60;99.90
46037;DHT22;31769;49.304;8.428;2024-03-22T10:26:23;16.50;99.90
46037;DHT22;31769;49.304;8.428;2024-03-22T10:29:23;16.60;99.90
46037;DHT22;31769;49.304;8.428;2024-03-22T10:32:24;16.30;99.90
46037;DHT22;31769;49.304;8.428;2024-03-22T10:35:25;16.60;99.90
46037;DHT22;31769;49.304;8.428;2024-03-22T10:38:28;16.90;99.90
46037;DHT22;31769;49.304;8.428;2024-03-22T10:41:29;16.90;99.90
46037;DHT22;31769;49.304;8.428;2024-03-22T10:44:30;16.90;99.90
46037;DHT22;31769;49.304;8.428;2024-03-22T10:47:33;17.10;99.90
46037;DHT22;31769;49.304;8.428;2024-03-22T10:50:35;17.10;99.90
46037;DHT22;31769;49.304;8.428;2024-03-22T10:53:39;17.30;99.90
46037;DHT22;31769;49.304;8.428;2024-03-22T10:56:40;17.10;99.90
46037;DHT22;31769;49.304;8.428;2024-03-22T10:59:41;17.00;99.90
46037;DHT22;31769;49.304;8.428;2024-03-22T11:02:45;17.00;99.90
46037;DHT22;31769;49.304;8.428;2024-03-22T11:05:46;17.00;99.90
46037;DHT22;31769;49.304;8.428;2024-03-22T11:08:51;17.00;99.90
46037;DHT22;31769;49.304;8.428;2024-03-22T11:11:53;17.20;99.90
46037;DHT22;31769;49.304;8.428;2024-03-22T11:14:55;17.40;99.90
46037;DHT22;31769;49.304;8.428;2024-03-22T11:17:57;17.50;99.90
46037;DHT22;31769;49.304;8.428;2024-03-22T11:20:59;17.60;99.90
46037;DHT22;31769;49.304;8.428;2024-03-22T11:24:03;17.70;99.90
46037;DHT22;31769;49.304;8.428;2024-03-22T11:27:04;17.60;99.90
46037;DHT22;31769;49.304;8.428;2024-03-22T11:30:05;17.40;99.90
46037;DHT22;31769;49.304;8.428;2024-03-22T11:33:07;17.50;99.90
46037;DHT22;31769;49.304;8.428;2024-03-22T11:36:09;17.50;99.90
46037;DHT22;31769;49.304;8.428;2024-03-22T11:39:09;17.60;99.90
46037;DHT22;31769;49.304;8.428;2024-03-22T11:42:10;17.50;99.90
46037;DHT22;31769;49.304;8.428;2024-03-22T11:45:14;17.60;99.90
46037;DHT22;31769;49.304;8.428;2024-03-22T11:48:15;17.70;99.90
46037;DHT22;31769;49.304;8.428;2024-03-22T11:51:16;18.00;99.90
46037;DHT22;31769;49.304;8.428;2024-03-22T11:54:19;18.50;99.90
46037;DHT22;31769;49.304;8.428;2024-03-22T11:57:21;19.00;99.90
46037;DHT22;31769;49.304;8.428;2024-03-22T12:00:22;19.50;99.90
46037;DHT22;31769;49.304;8.428;2024-03-22T12:03:23;19.60;99.90
46037;DHT22;31769;49.304;8.428;2024-03-22T12:06:24;19.50;99.90
46037;DHT22;31769;49.304;8.428;2024-03-22T12:09:25;19.60;99.90
46037;DHT22;31769;49.304;8.428;2024-03-22T12:12:25;19.60;99.90
46037;DHT22;31769;49.304;8.428;2024-03-22T12:15:27;19.50;99.90
46037;DHT22;31769;49.304;8.428;2024-03-22T12:18:28;19.80;99.90
46037;DHT22;31769;49.304;8.428;2024-03-22T12:21:28;19.60;99.90
46037;DHT22;31769;49.304;8.428;2024-03-22T12:24:29;19.50;99.90
46037;DHT22;31769;49.304;8.428;2024-03-22T12:27:30;19.60;99.90
46037;DHT22;31769;49.304;8.428;2024-03-22T12:30:31;19.60;99.90
46037;DHT22;31769;49.304;8.428;2024-03-22T12:33:31;19.70;99.90
46037;DHT22;31769;49.304;8.428;2024-03-22T12:36:32;20.10;99.90
46037;DHT22;31769;49.304;8.428;2024-03-22T12:39:32;20.60;99.90
46037;DHT22;31769;49.304;8.428;2024-03-22T12:42:34;22.50;98.00
46037;DHT22;31769;49.304;8.428;2024-03-22T12:45:34;23.30;96.20
46037;DHT22;31769;49.304;8.428;2024-03-22T12:48:35;24.10;94.10
46037;DHT22;31769;49.304;8.428;2024-03-22T12:51:36;24.70;92.10
46037;DHT22;31769;49.304;8.428;2024-03-22T12:54:38;26.40;87.80
46037;DHT22;31769;49.304;8.428;2024-03-22T12:57:39;26.80;82.60
46037;DHT22;31769;49.304;8.428;2024-03-22T13:00:40;26.60;81.60
46037;DHT22;31769;49.304;8.428;2024-03-22T13:03:40;26.00;79.30
46037;DHT22;31769;49.304;8.428;2024-03-22T13:06:41;24.70;82.70
46037;DHT22;31769;49.304;8.428;2024-03-22T13:09:42;22.70;86.40
46037;DHT22;31769;49.304;8.428;2024-03-22T13:12:42;21.90;88.80
46037;DHT22;31769;49.304;8.428;2024-03-22T13:15:43;21.70;91.00
46037;DHT22;31769;49.304;8.428;2024-03-22T13:18:44;22.10;90.00
46037;DHT22;31769;49.304;8.428;2024-03-22T13:21:45;21.70;91.30
46037;DHT22;31769;49.304;8.428;2024-03-22T13:24:48;21.50;92.00
46037;DHT22;31769;49.304;8.428;2024-03-22T13:27:50;21.00;92.10
46037;DHT22;31769;49.304;8.428;2024-03-22T13:31:04;20.40;93.10
46037;DHT22;31769;49.304;8.428;2024-03-22T13:34:07;20.00;94.60
46037;DHT22;31769;49.304;8.428;2024-03-22T13:37:08;20.00;94.60
46037;DHT22;31769;49.304;8.428;2024-03-22T13:40:09;20.20;94.50
46037;DHT22;31769;49.304;8.428;2024-03-22T13:43:10;20.00;94.70
46037;DHT22;31769;49.304;8.428;2024-03-22T13:46:11;20.50;94.50
46037;DHT22;31769;49.304;8.428;2024-03-22T13:49:16;20.70;94.20
46037;DHT22;31769;49.304;8.428;2024-03-22T13:52:17;21.60;93.20
46037;DHT22;31769;49.304;8.428;2024-03-22T13:55:18;21.70;92.40
46037;DHT22;31769;49.304;8.428;2024-03-22T13:58:19;21.80;92.00
46037;DHT22;31769;49.304;8.428;2024-03-22T14:01:20;23.30;90.70
46037;DHT22;31769;49.304;8.428;2024-03-22T14:04:21;24.50;86.10
46037;DHT22;31769;49.304;8.428;2024-03-22T14:07:22;24.50;85.70
46037;DHT22;31769;49.304;8.428;2024-03-22T14:10:22;24.20;84.80
46037;DHT22;31769;49.304;8.428;2024-03-22T14:13:23;22.90;88.50
46037;DHT22;31769;49.304;8.428;2024-03-22T14:16:24;22.10;89.30
46037;DHT22;31769;49.304;8.428;2024-03-22T14:19:25;21.10;91.30
46037;DHT22;31769;49.304;8.428;2024-03-22T14:22:25;20.80;92.10
46037;DHT22;31769;49.304;8.428;2024-03-22T14:25:26;20.60;92.50
46037;DHT22;31769;49.304;8.428;2024-03-22T14:28:27;20.10;93.40
46037;DHT22;31769;49.304;8.428;2024-03-22T14:31:28;20.10;94.00
46037;DHT22;31769;49.304;8.428;2024-03-22T14:34:29;20.00;93.70
46037;DHT22;31769;49.304;8.428;2024-03-22T14:37:30;20.10;94.00
46037;DHT22;31769;49.304;8.428;2024-03-22T14:40:31;20.30;93.80
46037;DHT22;31769;49.304;8.428;2024-03-22T14:43:37;20.50;92.80
46037;DHT22;31769;49.304;8.428;2024-03-22T14:46:37;20.30;93.10
46037;DHT22;31769;49.304;8.428;2024-03-22T14:49:38;20.20;93.00
46037;DHT22;31769;49.304;8.428;2024-03-22T14:52:39;20.20;93.60
46037;DHT22;31769;49.304;8.428;2024-03-22T14:55:40;20.20;93.40
46037;DHT22;31769;49.304;8.428;2024-03-22T14:58:41;20.30;93.60
46037;DHT22;31769;49.304;8.428;2024-03-22T15:01:43;20.10;93.40
46037;DHT22;31769;49.304;8.428;2024-03-22T15:04:43;20.20;93.60
46037;DHT22;31769;49.304;8.428;2024-03-22T15:07:44;20.20;93.10
46037;DHT22;31769;49.304;8.428;2024-03-22T15:10:45;20.10;92.70
46037;DHT22;31769;49.304;8.428;2024-03-22T15:13:46;20.10;92.70
46037;DHT22;31769;49.304;8.428;2024-03-22T15:16:47;20.40;92.30
46037;DHT22;31769;49.304;8.428;2024-03-22T15:19:48;20.60;91.50
46037;DHT22;31769;49.304;8.428;2024-03-22T15:22:49;20.70;91.20
46037;DHT22;31769;49.304;8.428;2024-03-22T15:25:50;20.40;91.60
46037;DHT22;31769;49.304;8.428;2024-03-22T15:28:50;20.10;92.30
46037;DHT22;31769;49.304;8.428;2024-03-22T15:31:51;20.00;92.00
46037;DHT22;31769;49.304;8.428;2024-03-22T15:34:52;19.80;92.50
46037;DHT22;31769;49.304;8.428;2024-03-22T15:37:53;19.50;93.00
46037;DHT22;31769;49.304;8.428;2024-03-22T15:40:53;19.40;93.20
46037;DHT22;31769;49.304;8.428;2024-03-22T15:43:54;19.40;94.10
46037;DHT22;31769;49.304;8.428;2024-03-22T15:46:55;19.30;94.10
46037;DHT22;31769;49.304;8.428;2024-03-22T15:50:00;19.10;94.10
46037;DHT22;31769;49.304;8.428;2024-03-22T15:53:01;19.10;94.90
46037;DHT22;31769;49.304;8.428;2024-03-22T15:56:02;19.40;94.50
46037;DHT22;31769;49.304;8.428;2024-03-22T15:59:03;19.80;94.60
46037;DHT22;31769;49.304;8.428;2024-03-22T16:02:05;20.20;94.10
46037;DHT22;31769;49.304;8.428;2024-03-22T16:05:06;20.30;93.70
46037;DHT22;31769;49.304;8.428;2024-03-22T16:08:07;20.30;93.40
46037;DHT22;31769;49.304;8.428;2024-03-22T16:11:09;20.60;93.50
46037;DHT22;31769;49.304;8.428;2024-03-22T16:14:10;21.70;91.90
46037;DHT22;31769;49.304;8.428;2024-03-22T16:17:10;22.70;90.20
46037;DHT22;31769;49.304;8.428;2024-03-22T16:20:12;22.40;90.10
46037;DHT22;31769;49.304;8.428;2024-03-22T16:23:13;22.30;90.60
46037;DHT22;31769;49.304;8.428;2024-03-22T16:26:14;22.20;90.60
46037;DHT22;31769;49.304;8.428;2024-03-22T16:29:15;22.30;90.60
46037;DHT22;31769;49.304;8.428;2024-03-22T16:32:15;21.70;91.50
46037;DHT22;31769;49.304;8.428;2024-03-22T16:35:16;21.10;92.10
46037;DHT22;31769;49.304;8.428;2024-03-22T16:38:17;20.60;92.70
46037;DHT22;31769;49.304;8.428;2024-03-22T16:41:21;20.20;93.60
46037;DHT22;31769;49.304;8.428;2024-03-22T16:44:21;20.10;94.00
46037;DHT22;31769;49.304;8.428;2024-03-22T16:47:22;21.20;93.00
46037;DHT22;31769;49.304;8.428;2024-03-22T16:50:26;23.10;90.80
46037;DHT22;31769;49.304;8.428;2024-03-22T16:53:29;24.00;88.40
46037;DHT22;31769;49.304;8.428;2024-03-22T16:56:30;24.20;86.90
46037;DHT22;31769;49.304;8.428;2024-03-22T16:59:30;23.60;87.30
46037;DHT22;31769;49.304;8.428;2024-03-22T17:02:31;23.00;88.80
46037;DHT22;31769;49.304;8.428;2024-03-22T17:05:33;22.70;89.40
46037;DHT22;31769;49.304;8.428;2024-03-22T17:08:34;21.90;90.70
46037;DHT22;31769;49.304;8.428;2024-03-22T17:11:34;21.10;91.90
46037;DHT22;31769;49.304;8.428;2024-03-22T17:14:35;20.90;92.40
46037;DHT22;31769;49.304;8.428;2024-03-22T17:17:36;20.50;92.80
46037;DHT22;31769;49.304;8.428;2024-03-22T17:20:37;20.50;92.90
46037;DHT22;31769;49.304;8.428;2024-03-22T17:23:38;20.60;93.00
46037;DHT22;31769;49.304;8.428;2024-03-22T17:26:39;20.50;92.80
46037;DHT22;31769;49.304;8.428;2024-03-22T17:29:42;20.30;93.30
46037;DHT22;31769;49.304;8.428;2024-03-22T17:32:43;19.60;94.20
46037;DHT22;31769;49.304;8.428;2024-03-22T17:35:44;19.00;95.10
46037;DHT22;31769;49.304;8.428;2024-03-22T17:38:45;18.70;95.90
46037;DHT22;31769;49.304;8.428;2024-03-22T17:41:45;18.40;96.70
46037;DHT22;31769;49.304;8.428;2024-03-22T17:44:46;18.00;97.50
46037;DHT22;31769;49.304;8.428;2024-03-22T17:47:47;17.60;98.20
46037;DHT22;31769;49.304;8.428;2024-03-22T17:50:47;17.50;98.80
46037;DHT22;31769;49.304;8.428;2024-03-22T17:53:49;17.30;99.40
46037;DHT22;31769;49.304;8.428;2024-03-22T17:56:51;17.20;99.90
46037;DHT22;31769;49.304;8.428;2024-03-22T17:59:51;17.10;99.90
46037;DHT22;31769;49.304;8.428;2024-03-22T18:02:52;17.00;99.90
46037;DHT22;31769;49.304;8.428;2024-03-22T18:05:53;16.90;99.90
46037;DHT22;31769;49.304;8.428;2024-03-22T18:08:53;16.90;99.90
46037;DHT22;31769;49.304;8.428;2024-03-22T18:11:54;16.80;99.90
46037;DHT22;31769;49.304;8.428;2024-03-22T18:14:55;16.60;99.90
46037;DHT22;31769;49.304;8.428;2024-03-22T18:17:56;16.60;99.90
46037;DHT22;31769;49.304;8.428;2024-03-22T18:20:56;16.50;99.90
46037;DHT22;31769;49.304;8.428;2024-03-22T18:23:57;16.40;99.90
46037;DHT22;31769;49.304;8.428;2024-03-22T18:26:58;16.40;99.90
46037;DHT22;31769;49.304;8.428;2024-03-22T18:29:59;16.30;99.90
46037;DHT22;31769;49.304;8.428;2024-03-22T18:33:00;16.30;99.90
46037;DHT22;31769;49.304;8.428;2024-03-22T18:36:03;16.30;99.90
46037;DHT22;31769;49.304;8.428;2024-03-22T18:39:04;16.10;99.90
46037;DHT22;31769;49.304;8.428;2024-03-22T18:42:05;16.10;99.90
46037;DHT22;31769;49.304;8.428;2024-03-22T18:45:06;15.90;99.90
46037;DHT22;31769;49.304;8.428;2024-03-22T18:48:07;15.90;99.90
46037;DHT22;31769;49.304;8.428;2024-03-22T18:51:08;15.80;99.90
46037;DHT22;31769;49.304;8.428;2024-03-22T18:54:10;15.70;99.90
46037;DHT22;31769;49.304;8.428;2024-03-22T18:57:11;15.70;99.90
46037;DHT22;31769;49.304;8.428;2024-03-22T19:00:12;15.70;99.90
46037;DHT22;31769;49.304;8.428;2024-03-22T19:03:13;15.60;99.90
46037;DHT22;31769;49.304;8.428;2024-03-22T19:06:13;15.60;99.90